createdAt,value
2023-02-22T00:01:35.152Z,2.08
2023-02-22T00:04:05.190Z,1.90
2023-02-22T00:06:33.620Z,2.00
2023-02-22T00:09:02.556Z,2.30
2023-02-22T00:11:31.755Z,2.40
2023-02-22T00:13:59.356Z,2.50
2023-02-22T00:16:27.018Z,2.90
2023-02-22T00:18:55.132Z,2.37
2023-02-22T00:21:22.661Z,2.63
2023-02-22T00:23:50.379Z,2.50
2023-02-22T00:26:20.704Z,2.25
2023-02-22T00:28:50.619Z,2.67
2023-02-22T00:31:19.696Z,2.42
2023-02-22T00:33:47.543Z,2.60
2023-02-22T00:36:15.242Z,2.53
2023-02-22T00:38:43.334Z,2.78
2023-02-22T00:41:12.271Z,2.10
2023-02-22T00:43:40.031Z,2.42
2023-02-22T00:46:07.948Z,2.50
2023-02-22T00:48:35.680Z,2.40
2023-02-22T00:51:03.421Z,2.50
2023-02-22T00:53:31.270Z,2.47
2023-02-22T00:55:59.233Z,2.42
2023-02-22T00:58:28.813Z,2.27
2023-02-22T01:00:58.552Z,2.25
2023-02-22T01:03:26.200Z,2.55
2023-02-22T01:05:53.996Z,2.50
2023-02-22T01:08:22.046Z,2.87
2023-02-22T01:10:50.400Z,2.87
2023-02-22T01:13:19.943Z,2.50
2023-02-22T01:15:47.874Z,2.40
2023-02-22T01:18:17.407Z,2.72
2023-02-22T01:20:47.967Z,3.10
2023-02-22T01:23:17.375Z,2.73
2023-02-22T01:25:45.241Z,2.50
2023-02-22T01:28:14.412Z,2.47
2023-02-22T01:30:42.768Z,2.62
2023-02-22T01:33:12.801Z,2.78
2023-02-22T01:35:40.916Z,2.27
2023-02-22T01:38:12.222Z,2.42
2023-02-22T01:40:43.398Z,2.83
2023-02-22T01:43:26.518Z,2.72
2023-02-22T01:45:55.553Z,2.85
2023-02-22T01:48:29.334Z,2.67
2023-02-22T01:51:18.736Z,2.55
2023-02-22T01:54:15.288Z,2.60
2023-02-22T01:56:50.557Z,2.83
2023-02-22T01:59:21.056Z,3.00
2023-02-22T02:01:48.823Z,2.53
2023-02-22T02:04:25.479Z,2.60
2023-02-22T02:07:00.363Z,2.60
2023-02-22T02:09:47.238Z,2.65
2023-02-22T02:12:16.586Z,2.67
2023-02-22T02:14:44.766Z,2.50
2023-02-22T02:17:13.846Z,2.80
2023-02-22T02:20:11.581Z,2.78
2023-02-22T02:22:51.443Z,2.92
2023-02-22T02:25:34.103Z,2.90
2023-02-22T02:28:30.794Z,2.73
2023-02-22T02:31:29.885Z,2.83
2023-02-22T02:34:03.823Z,2.90
2023-02-22T02:36:40.480Z,2.97
2023-02-22T02:39:23.947Z,3.30
2023-02-22T02:41:52.583Z,2.90
2023-02-22T02:44:36.835Z,3.37
2023-02-22T02:47:27.328Z,3.30
2023-02-22T02:50:14.676Z,3.12
2023-02-22T02:52:45.766Z,3.17
2023-02-22T02:55:14.351Z,3.20
2023-02-22T02:57:42.146Z,2.62
2023-02-22T03:00:22.470Z,3.42
2023-02-22T03:03:07.720Z,3.17
2023-02-22T03:06:13.274Z,3.30
2023-02-22T03:08:54.003Z,3.10
2023-02-22T03:11:25.231Z,3.15
2023-02-22T03:14:18.954Z,2.90
2023-02-22T03:16:52.287Z,3.00
2023-02-22T03:19:36.722Z,3.17
2023-02-22T03:22:14.171Z,3.30
2023-02-22T03:24:59.010Z,2.92
2023-02-22T03:27:31.537Z,3.22
2023-02-22T03:30:06.877Z,3.35
2023-02-22T03:32:39.530Z,3.25
2023-02-22T03:35:14.737Z,3.13
2023-02-22T03:37:46.805Z,3.20
2023-02-22T03:40:26.026Z,3.60
2023-02-22T03:43:08.457Z,2.90
2023-02-22T03:45:40.915Z,2.85
2023-02-22T03:48:19.369Z,3.37
2023-02-22T03:50:49.053Z,3.22
2023-02-22T03:53:18.639Z,2.90
2023-02-22T03:55:51.650Z,2.80
2023-02-22T03:58:21.946Z,3.00
2023-02-22T04:00:53.329Z,3.03
2023-02-22T04:03:21.900Z,3.20
2023-02-22T04:05:49.933Z,2.90
2023-02-22T04:08:17.574Z,3.10
2023-02-22T04:10:45.582Z,3.25
2023-02-22T04:13:14.769Z,3.40
2023-02-22T04:15:43.711Z,3.08
2023-02-22T04:18:11.694Z,3.03
2023-02-22T04:20:39.587Z,3.10
2023-02-22T04:23:08.206Z,3.25
2023-02-22T04:25:38.600Z,3.30
2023-02-22T04:28:12.601Z,2.80
2023-02-22T04:30:43.937Z,3.08
2023-02-22T04:33:13.326Z,2.97
2023-02-22T04:35:41.218Z,2.97
2023-02-22T04:38:09.637Z,3.27
2023-02-22T04:40:38.100Z,2.87
2023-02-22T04:43:06.307Z,3.25
2023-02-22T04:45:33.854Z,3.10
2023-02-22T04:48:03.238Z,3.22
2023-02-22T04:50:31.401Z,3.47
2023-02-22T04:52:59.073Z,3.12
2023-02-22T04:55:28.130Z,3.22
2023-02-22T04:57:56.781Z,3.28
2023-02-22T05:00:25.929Z,3.00
2023-02-22T05:02:56.321Z,3.57
2023-02-22T05:05:24.312Z,3.00
2023-02-22T05:07:52.653Z,3.62
2023-02-22T05:10:20.631Z,3.83
2023-02-22T05:12:48.526Z,3.95
2023-02-22T05:15:18.157Z,4.37
2023-02-22T05:17:45.685Z,4.20
2023-02-22T05:20:24.906Z,3.75
2023-02-22T05:22:52.438Z,3.30
2023-02-22T05:25:20.777Z,3.60
2023-02-22T05:27:55.927Z,3.70
2023-02-22T05:30:31.253Z,3.40
2023-02-22T05:33:00.670Z,3.53
2023-02-22T05:35:29.417Z,3.30
2023-02-22T05:37:57.640Z,4.28
2023-02-22T05:40:26.667Z,3.77
2023-02-22T05:42:56.732Z,3.90
2023-02-22T05:45:26.363Z,4.50
2023-02-22T05:47:54.956Z,3.90
2023-02-22T05:50:24.724Z,4.22
2023-02-22T05:52:53.279Z,4.40
2023-02-22T05:55:23.168Z,4.10
2023-02-22T05:57:51.571Z,4.10
2023-02-22T06:00:28.654Z,3.85
2023-02-22T06:03:01.855Z,4.12
2023-02-22T06:05:30.105Z,3.90
2023-02-22T06:07:58.819Z,3.97
2023-02-22T06:10:27.684Z,3.78
2023-02-22T06:12:57.820Z,3.53
2023-02-22T06:15:26.402Z,3.80
2023-02-22T06:17:55.904Z,3.70
2023-02-22T06:20:28.041Z,3.20
2023-02-22T06:22:57.730Z,3.58
2023-02-22T06:25:31.370Z,3.42
2023-02-22T06:28:00.709Z,4.68
2023-02-22T06:30:29.088Z,4.33
2023-02-22T06:32:56.736Z,4.53
2023-02-22T06:35:24.737Z,3.92
2023-02-22T06:37:52.607Z,3.80
2023-02-22T06:40:20.298Z,3.87
2023-02-22T06:42:49.454Z,4.87
2023-02-22T06:45:18.323Z,4.35
2023-02-22T06:47:45.981Z,5.03
2023-02-22T06:50:26.198Z,4.95
2023-02-22T06:52:53.825Z,5.87
2023-02-22T06:55:24.159Z,5.50
2023-02-22T06:57:52.157Z,6.10
2023-02-22T07:00:21.412Z,5.87
2023-02-22T07:02:49.461Z,6.32
2023-02-22T07:05:19.386Z,5.85
2023-02-22T07:07:48.382Z,5.47
2023-02-22T07:10:25.776Z,6.20
2023-02-22T07:12:53.953Z,6.28
2023-02-22T07:15:24.113Z,6.10
2023-02-22T07:17:52.664Z,7.85
2023-02-22T07:20:21.633Z,8.90
2023-02-22T07:22:49.698Z,9.85
2023-02-22T07:25:17.768Z,13.05
2023-02-22T07:27:45.657Z,9.95
2023-02-22T07:30:43.729Z,9.45
2023-02-22T07:33:13.179Z,8.77
2023-02-22T07:35:46.627Z,8.52
2023-02-22T07:38:16.128Z,8.30
2023-02-22T07:40:44.928Z,6.95
2023-02-22T07:43:17.553Z,7.90
2023-02-22T07:45:46.404Z,7.10
2023-02-22T07:48:17.383Z,5.57
2023-02-22T07:50:45.613Z,5.50
2023-02-22T07:53:24.007Z,5.07
2023-02-22T07:55:52.312Z,5.95
2023-02-22T07:58:22.737Z,5.47
2023-02-22T08:00:50.553Z,4.30
2023-02-22T08:03:20.063Z,4.62
2023-02-22T08:05:50.822Z,4.87
2023-02-22T08:08:19.998Z,4.80
2023-02-22T08:10:48.373Z,4.83
2023-02-22T08:13:16.980Z,5.43
2023-02-22T08:15:45.103Z,5.07
2023-02-22T08:18:15.837Z,5.22
2023-02-22T08:20:44.845Z,5.43
2023-02-22T08:23:13.859Z,4.83
2023-02-22T08:25:41.394Z,4.60
2023-02-22T08:28:11.460Z,5.32
2023-02-22T08:30:42.804Z,5.25
2023-02-22T08:33:14.539Z,5.10
2023-02-22T08:35:42.784Z,4.90
2023-02-22T08:38:18.490Z,5.07
2023-02-22T08:40:47.855Z,6.12
2023-02-22T08:43:15.953Z,6.07
2023-02-22T08:45:44.728Z,5.85
2023-02-22T08:48:14.138Z,6.87
2023-02-22T08:50:42.042Z,6.55
2023-02-22T08:53:10.899Z,9.85
2023-02-22T08:55:39.951Z,5.50
2023-02-22T08:58:10.250Z,5.03
2023-02-22T09:00:39.163Z,5.03
2023-02-22T09:03:09.485Z,5.20
2023-02-22T09:05:37.100Z,4.95
2023-02-22T09:08:04.858Z,4.90
2023-02-22T09:10:33.724Z,5.28
2023-02-22T09:13:02.298Z,5.03
2023-02-22T09:15:30.902Z,5.95
2023-02-22T09:17:59.299Z,5.37
2023-02-22T09:20:28.023Z,5.18
2023-02-22T09:22:56.121Z,4.72
2023-02-22T09:25:24.139Z,4.63
2023-02-22T09:27:53.387Z,4.80
2023-02-22T09:30:25.592Z,5.40
2023-02-22T09:32:55.384Z,5.40
2023-02-22T09:35:27.170Z,4.65
2023-02-22T09:38:00.191Z,5.33
2023-02-22T09:40:30.465Z,4.87
2023-02-22T09:43:26.681Z,5.00
2023-02-22T09:46:07.007Z,5.70
2023-02-22T09:48:36.784Z,5.97
2023-02-22T09:51:15.806Z,4.97
2023-02-22T09:53:48.471Z,5.20
2023-02-22T09:56:19.164Z,6.97
2023-02-22T09:58:52.784Z,5.78
2023-02-22T10:01:28.989Z,6.10
2023-02-22T10:04:01.607Z,6.30
2023-02-22T10:06:29.868Z,5.72
2023-02-22T10:09:00.414Z,6.22
2023-02-22T10:11:46.677Z,5.70
2023-02-22T10:15:16.094Z,5.87
2023-02-22T10:18:11.423Z,5.93
2023-02-22T10:21:07.750Z,5.50
2023-02-22T10:23:38.997Z,5.75
2023-02-22T10:26:20.802Z,6.78
2023-02-22T10:29:10.912Z,5.90
2023-02-22T10:31:42.559Z,4.60
2023-02-22T10:34:16.686Z,4.90
2023-02-22T10:36:46.389Z,5.60
2023-02-22T10:39:13.964Z,5.20
2023-02-22T10:41:47.158Z,6.50
2023-02-22T10:44:15.492Z,5.70
2023-02-22T10:46:44.501Z,6.43
2023-02-22T10:49:18.361Z,6.07
2023-02-22T10:51:49.067Z,6.45
2023-02-22T10:54:30.841Z,6.40
2023-02-22T10:57:00.161Z,6.27
2023-02-22T10:59:31.079Z,5.75
2023-02-22T11:02:00.133Z,6.32
2023-02-22T11:04:27.990Z,5.85
2023-02-22T11:07:01.394Z,6.07
2023-02-22T11:09:29.466Z,5.30
2023-02-22T11:12:11.921Z,5.78
2023-02-22T11:14:39.755Z,6.90
2023-02-22T11:17:08.730Z,6.15
2023-02-22T11:19:38.474Z,5.82
2023-02-22T11:22:14.819Z,5.27
2023-02-22T11:24:51.966Z,5.10
2023-02-22T11:27:33.997Z,5.95
2023-02-22T11:30:29.083Z,7.47
2023-02-22T11:33:00.162Z,5.00
2023-02-22T11:35:33.165Z,4.90
2023-02-22T11:38:21.313Z,3.47
2023-02-22T11:41:15.290Z,4.07
2023-02-22T11:43:44.910Z,4.40
2023-02-22T11:46:29.154Z,4.15
2023-02-22T11:49:09.167Z,3.43
2023-02-22T11:51:49.591Z,6.78
2023-02-22T11:54:36.218Z,5.07
2023-02-22T11:57:26.880Z,3.78
2023-02-22T12:00:09.736Z,4.30
2023-02-22T12:02:56.701Z,4.83
2023-02-22T12:05:44.810Z,3.85
2023-02-22T12:08:44.277Z,3.90
2023-02-22T12:11:27.315Z,3.58
2023-02-22T12:14:05.552Z,3.90
2023-02-22T12:16:54.933Z,3.43
2023-02-22T12:19:31.272Z,5.90
2023-02-22T12:22:12.414Z,4.47
2023-02-22T12:24:48.013Z,3.65
2023-02-22T12:27:43.813Z,3.58
2023-02-22T12:30:12.908Z,3.30
2023-02-22T12:32:53.383Z,3.00
2023-02-22T12:35:27.599Z,3.47
2023-02-22T12:38:05.782Z,3.35
2023-02-22T12:40:57.091Z,4.18
2023-02-22T12:43:51.731Z,5.07
2023-02-22T12:46:37.871Z,4.20
2023-02-22T12:49:19.200Z,3.40
2023-02-22T12:52:09.574Z,4.15
2023-02-22T12:55:01.779Z,4.05
2023-02-22T12:57:47.600Z,2.97
2023-02-22T13:00:23.127Z,2.60
2023-02-22T13:03:17.777Z,2.75
2023-02-22T13:05:48.420Z,3.90
2023-02-22T13:08:39.359Z,3.72
2023-02-22T13:11:19.865Z,3.80
2023-02-22T13:14:05.942Z,3.55
2023-02-22T13:16:52.726Z,3.40
2023-02-22T13:19:29.948Z,3.60
2023-02-22T13:22:13.613Z,3.03
2023-02-22T13:24:53.244Z,7.97
2023-02-22T13:27:52.519Z,6.10
2023-02-22T13:31:10.905Z,3.67
2023-02-22T13:34:13.198Z,3.22
2023-02-22T13:37:25.217Z,2.47
2023-02-22T13:40:24.655Z,2.00
2023-02-22T13:43:16.499Z,2.12
2023-02-22T13:45:47.147Z,2.75
2023-02-22T13:48:20.637Z,2.75
2023-02-22T13:50:57.500Z,2.95
2023-02-22T13:53:35.058Z,2.90
2023-02-22T13:56:03.231Z,2.37
2023-02-22T13:58:30.877Z,2.50
2023-02-22T14:00:59.760Z,2.33
2023-02-22T14:03:35.971Z,1.90
2023-02-22T14:06:05.679Z,1.63
2023-02-22T14:08:34.176Z,1.77
2023-02-22T14:11:23.817Z,1.80
2023-02-22T14:13:55.856Z,1.35
2023-02-22T14:16:31.104Z,1.60
2023-02-22T14:19:14.512Z,1.30
2023-02-22T14:22:03.045Z,1.77
2023-02-22T14:24:45.251Z,1.50
2023-02-22T14:27:14.063Z,1.77
2023-02-22T14:30:02.341Z,2.17
2023-02-22T14:32:35.801Z,3.80
2023-02-22T14:35:28.755Z,8.15
2023-02-22T14:38:00.920Z,2.85
2023-02-22T14:40:33.384Z,2.45
2023-02-22T14:43:09.602Z,2.35
2023-02-22T14:45:45.537Z,2.23
2023-02-22T14:48:24.984Z,2.72
2023-02-22T14:51:20.258Z,2.00
2023-02-22T14:53:52.119Z,2.22
2023-02-22T14:56:25.639Z,2.03
2023-02-22T14:59:07.846Z,1.93
2023-02-22T15:01:48.939Z,2.30
2023-02-22T15:04:23.536Z,2.40
2023-02-22T15:06:52.405Z,2.35
2023-02-22T15:09:28.914Z,2.87
2023-02-22T15:12:03.518Z,2.83
2023-02-22T15:14:33.221Z,3.80
2023-02-22T15:17:06.155Z,3.95
2023-02-22T15:19:39.151Z,3.83
2023-02-22T15:22:19.910Z,4.03
2023-02-22T15:25:00.577Z,3.57
2023-02-22T15:27:29.084Z,3.70
2023-02-22T15:30:05.094Z,3.03
2023-02-22T15:32:49.903Z,3.17
2023-02-22T15:35:31.229Z,2.78
2023-02-22T15:38:12.205Z,3.00
2023-02-22T15:40:43.372Z,3.20
2023-02-22T15:43:28.622Z,3.50
2023-02-22T15:45:56.915Z,3.22
2023-02-22T15:48:26.850Z,3.03
2023-02-22T15:51:07.055Z,2.67
2023-02-22T15:53:45.458Z,3.87
2023-02-22T15:56:26.017Z,6.55
2023-02-22T15:59:10.220Z,6.78
2023-02-22T16:01:42.026Z,4.90
2023-02-22T16:04:18.606Z,3.20
2023-02-22T16:06:47.379Z,3.17
2023-02-22T16:09:26.093Z,3.05
2023-02-22T16:12:21.024Z,3.28
2023-02-22T16:14:50.092Z,3.30
2023-02-22T16:17:36.883Z,3.57
2023-02-22T16:20:20.518Z,2.83
2023-02-22T16:22:49.448Z,2.78
2023-02-22T16:25:21.662Z,1.95
2023-02-22T16:28:30.753Z,1.60
2023-02-22T16:30:59.529Z,1.40
2023-02-22T16:33:32.094Z,1.55
2023-02-22T16:36:04.204Z,1.50
2023-02-22T16:38:33.286Z,1.30
2023-02-22T16:41:01.326Z,1.45
2023-02-22T16:43:32.765Z,1.60
2023-02-22T16:46:04.845Z,2.05
2023-02-22T16:48:33.369Z,1.65
2023-02-22T16:51:06.665Z,1.98
2023-02-22T16:53:34.709Z,1.90
2023-02-22T16:56:05.103Z,2.23
2023-02-22T16:58:34.729Z,1.77
2023-02-22T17:01:02.955Z,2.00
2023-02-22T17:03:30.936Z,1.92
2023-02-22T17:05:58.902Z,2.70
2023-02-22T17:08:26.957Z,2.40
2023-02-22T17:10:56.786Z,2.67
2023-02-22T17:13:27.395Z,2.58
2023-02-22T17:15:57.082Z,2.85
2023-02-22T17:18:28.551Z,2.90
2023-02-22T17:20:57.302Z,3.20
2023-02-22T17:23:27.610Z,3.37
2023-02-22T17:26:00.116Z,3.60
2023-02-22T17:28:28.586Z,3.30
2023-02-22T17:31:01.948Z,3.47
2023-02-22T17:33:33.032Z,3.90
2023-02-22T17:36:02.758Z,3.65
2023-02-22T17:38:31.442Z,3.60
2023-02-22T17:41:01.235Z,3.03
2023-02-22T17:43:29.225Z,2.62
2023-02-22T17:45:57.444Z,2.57
2023-02-22T17:48:25.569Z,2.97
2023-02-22T17:50:53.905Z,2.65
2023-02-22T17:53:24.790Z,6.12
2023-02-22T17:55:52.803Z,6.68
2023-02-22T17:58:20.544Z,7.03
2023-02-22T18:00:50.417Z,7.03
2023-02-22T18:03:21.696Z,6.45
2023-02-22T18:05:54.487Z,6.05
2023-02-22T18:08:24.964Z,6.18
2023-02-22T18:10:56.310Z,6.20
2023-02-22T18:13:26.958Z,5.78
2023-02-22T18:16:00.109Z,6.80
2023-02-22T18:18:28.690Z,6.90
2023-02-22T18:20:59.818Z,6.90
2023-02-22T18:23:30.685Z,6.80
2023-02-22T18:26:10.763Z,6.65
2023-02-22T18:28:40.355Z,7.22
2023-02-22T18:31:15.996Z,24.10
2023-02-22T18:33:45.795Z,29.42
2023-02-22T18:36:14.378Z,18.27
2023-02-22T18:38:43.450Z,18.23
2023-02-22T18:41:17.274Z,16.60
2023-02-22T18:43:50.857Z,16.00
2023-02-22T18:46:21.502Z,14.02
2023-02-22T18:48:53.643Z,14.07
2023-02-22T18:51:22.816Z,14.25
2023-02-22T18:53:54.912Z,14.00
2023-02-22T18:56:24.452Z,12.63
2023-02-22T18:58:56.113Z,11.02
2023-02-22T19:01:25.950Z,10.40
2023-02-22T19:03:54.234Z,10.60
2023-02-22T19:06:22.926Z,10.00
2023-02-22T19:08:51.236Z,10.95
2023-02-22T19:11:21.964Z,9.48
2023-02-22T19:13:53.920Z,8.80
2023-02-22T19:16:24.467Z,8.95
2023-02-22T19:18:57.080Z,8.80
2023-02-22T19:21:27.543Z,8.23
2023-02-22T19:24:01.267Z,8.18
2023-02-22T19:26:29.528Z,8.03
2023-02-22T19:28:58.885Z,8.40
2023-02-22T19:31:33.734Z,8.30
2023-02-22T19:34:09.907Z,8.45
2023-02-22T19:36:38.695Z,8.93
2023-02-22T19:39:07.381Z,8.93
2023-02-22T19:41:35.327Z,8.70
2023-02-22T19:44:03.200Z,8.13
2023-02-22T19:46:31.672Z,8.02
2023-02-22T19:49:01.069Z,8.63
2023-02-22T19:51:30.348Z,8.10
2023-02-22T19:54:03.699Z,8.80
2023-02-22T19:56:32.324Z,8.40
2023-02-22T19:59:03.096Z,7.90
2023-02-22T20:01:33.336Z,9.77
2023-02-22T20:04:05.074Z,8.37
2023-02-22T20:06:40.322Z,8.60
2023-02-22T20:09:13.425Z,9.07
2023-02-22T20:11:41.070Z,10.50
2023-02-22T20:14:12.727Z,11.50
2023-02-22T20:16:40.567Z,10.80
2023-02-22T20:19:08.485Z,12.05
2023-02-22T20:21:37.318Z,13.52
2023-02-22T20:24:07.788Z,13.13
2023-02-22T20:26:36.786Z,13.43
2023-02-22T20:29:05.841Z,12.30
2023-02-22T20:31:33.840Z,11.27
2023-02-22T20:34:02.354Z,10.85
2023-02-22T20:36:30.463Z,10.85
2023-02-22T20:39:00.078Z,9.95
2023-02-22T20:41:32.262Z,9.83
2023-02-22T20:44:03.389Z,10.95
2023-02-22T20:46:31.711Z,12.35
2023-02-22T20:49:00.916Z,14.07
2023-02-22T20:51:30.400Z,13.82
2023-02-22T20:54:00.076Z,12.73
2023-02-22T20:56:29.978Z,12.55
2023-02-22T20:59:01.063Z,11.80
2023-02-22T21:01:29.285Z,12.35
2023-02-22T21:04:06.322Z,11.93
2023-02-22T21:06:37.372Z,12.33
2023-02-22T21:09:08.720Z,11.48
2023-02-22T21:11:36.850Z,11.23
2023-02-22T21:14:04.389Z,11.30
2023-02-22T21:16:35.567Z,11.80
2023-02-22T21:19:06.459Z,12.77
2023-02-22T21:21:35.632Z,11.57
2023-02-22T21:24:03.996Z,11.80
2023-02-22T21:26:33.737Z,10.45
2023-02-22T21:29:04.680Z,9.48
2023-02-22T21:31:34.108Z,10.47
2023-02-22T21:34:02.196Z,10.82
2023-02-22T21:36:31.945Z,10.05
2023-02-22T21:39:08.384Z,10.05
2023-02-22T21:41:39.155Z,9.45
2023-02-22T21:44:08.541Z,9.57
2023-02-22T21:46:36.245Z,9.95
2023-02-22T21:49:03.867Z,9.35
2023-02-22T21:51:33.276Z,9.02
2023-02-22T21:54:05.035Z,9.10
2023-02-22T21:56:39.886Z,9.03
2023-02-22T21:59:13.800Z,9.27
2023-02-22T22:01:47.060Z,11.25
2023-02-22T22:04:20.239Z,9.95
2023-02-22T22:06:50.856Z,11.25
2023-02-22T22:09:19.972Z,11.93
2023-02-22T22:11:49.868Z,11.88
2023-02-22T22:14:18.890Z,12.70
2023-02-22T22:16:52.266Z,10.70
2023-02-22T22:19:20.018Z,11.60
2023-02-22T22:21:50.036Z,10.47
2023-02-22T22:24:20.272Z,9.82
2023-02-22T22:26:54.577Z,9.68
2023-02-22T22:29:24.499Z,10.20
2023-02-22T22:31:53.133Z,9.93
2023-02-22T22:34:21.127Z,9.20
2023-02-22T22:36:48.629Z,9.63
2023-02-22T22:39:16.392Z,8.35
2023-02-22T22:41:44.701Z,8.77
2023-02-22T22:44:15.280Z,9.30
2023-02-22T22:46:43.795Z,8.47
2023-02-22T22:49:13.351Z,9.10
2023-02-22T22:51:41.314Z,8.70
2023-02-22T22:54:10.398Z,8.82
2023-02-22T22:56:38.717Z,8.65
2023-02-22T22:59:07.982Z,8.43
2023-02-22T23:01:40.082Z,8.65
2023-02-22T23:04:18.972Z,9.88
2023-02-22T23:06:50.545Z,8.52
2023-02-22T23:09:19.061Z,9.00
2023-02-22T23:11:53.504Z,8.97
2023-02-22T23:14:24.088Z,9.75
2023-02-22T23:16:59.952Z,8.90
2023-02-22T23:19:27.633Z,9.65
2023-02-22T23:21:56.221Z,10.10
2023-02-22T23:24:27.316Z,9.47
2023-02-22T23:26:59.932Z,8.82
2023-02-22T23:29:29.967Z,8.50
2023-02-22T23:31:58.754Z,8.50
2023-02-22T23:34:28.975Z,9.18
2023-02-22T23:36:56.549Z,8.60
2023-02-22T23:39:25.303Z,8.05
2023-02-22T23:42:00.896Z,7.45
2023-02-22T23:44:29.864Z,6.45
2023-02-22T23:46:57.411Z,5.85
2023-02-22T23:49:36.002Z,6.27
2023-02-22T23:52:05.545Z,5.32
2023-02-22T23:54:36.502Z,5.30
2023-02-22T23:57:04.901Z,5.87
2023-02-22T23:59:33.571Z,5.50
